KEKN

Elkins-Randolph Co-Jennings Randolph Field Airport

Elkins, West Virginia, USA
METAR KEKN 240202Z AUTO 00000KT 9SM SCT026 14/13 A3021 RMK AO2 T01440128 TSNO
Observed Flight Rules
May-24 @ 02:02 UTC (11 minutes ago) Visual Flight Rules
Visibility Clouds
9 miles
  • Scattered at 2,600' AGL
Temperatures Readings
Current 14°C / 57°F
Dewpoint 13°C / 55°F
Humidity 94%
Altimeter 30.21" Hg
Pressure 1023 hPa
Elevation 603
METAR KEKN 240202Z AUTO 00000KT 9SM SCT026 14/13 A3021 RMK AO2 T01440128 TSNO
Observed Flight Rules
May-24 @ 02:02 UTC
(11 minutes ago)
VFR
Clouds
  • Scattered at 2,600' AGL
Temperature Dewpoint
14°C / 57°F 13°C / 55°F
Humidity Altimeter Pressure
94% 30.21" Hg 1023 hPa